sensor_id;sensor_type;location;lat;lon;timestamp;P1;durP1;ratioP1;P2;durP2;ratioP2
487;SDS011;16586;48.976;9.584;2022-08-21T00:01:54;276.65;;;263.42;;
487;SDS011;16586;48.976;9.584;2022-08-21T00:04:21;279.38;;;266.02;;
487;SDS011;16586;48.976;9.584;2022-08-21T00:06:48;276.08;;;262.88;;
487;SDS011;16586;48.976;9.584;2022-08-21T00:09:15;275.15;;;262.00;;
487;SDS011;16586;48.976;9.584;2022-08-21T00:11:43;269.40;;;256.50;;
487;SDS011;16586;48.976;9.584;2022-08-21T00:14:10;287.33;;;273.63;;
487;SDS011;16586;48.976;9.584;2022-08-21T00:16:37;246.00;;;234.23;;
487;SDS011;16586;48.976;9.584;2022-08-21T00:19:06;271.63;;;258.63;;
487;SDS011;16586;48.976;9.584;2022-08-21T00:21:34;257.15;;;244.85;;
487;SDS011;16586;48.976;9.584;2022-08-21T00:24:02;288.77;;;274.98;;
487;SDS011;16586;48.976;9.584;2022-08-21T00:26:29;288.77;;;274.98;;
487;SDS011;16586;48.976;9.584;2022-08-21T00:28:56;253.32;;;241.23;;
487;SDS011;16586;48.976;9.584;2022-08-21T00:31:23;252.45;;;240.38;;
487;SDS011;16586;48.976;9.584;2022-08-21T00:33:50;284.87;;;271.27;;
487;SDS011;16586;48.976;9.584;2022-08-21T00:36:19;254.83;;;242.67;;
487;SDS011;16586;48.976;9.584;2022-08-21T00:38:46;281.20;;;267.75;;
487;SDS011;16586;48.976;9.584;2022-08-21T00:41:13;283.92;;;270.38;;
487;SDS011;16586;48.976;9.584;2022-08-21T00:43:40;311.90;;;297.00;;
487;SDS011;16586;48.976;9.584;2022-08-21T00:46:07;302.48;;;288.02;;
487;SDS011;16586;48.976;9.584;2022-08-21T00:48:34;292.08;;;278.13;;
487;SDS011;16586;48.976;9.584;2022-08-21T00:51:03;280.40;;;267.00;;
487;SDS011;16586;48.976;9.584;2022-08-21T00:53:34;276.70;;;263.48;;
487;SDS011;16586;48.976;9.584;2022-08-21T00:56:03;283.38;;;269.80;;
487;SDS011;16586;48.976;9.584;2022-08-21T00:58:32;283.33;;;269.80;;
487;SDS011;16586;48.976;9.584;2022-08-21T01:01:01;303.58;;;289.08;;
487;SDS011;16586;48.976;9.584;2022-08-21T01:03:29;279.27;;;265.92;;
487;SDS011;16586;48.976;9.584;2022-08-21T01:05:57;314.73;;;299.73;;
487;SDS011;16586;48.976;9.584;2022-08-21T01:08:24;294.92;;;280.83;;
487;SDS011;16586;48.976;9.584;2022-08-21T01:10:53;296.05;;;281.90;;
487;SDS011;16586;48.976;9.584;2022-08-21T01:13:22;289.00;;;275.20;;
487;SDS011;16586;48.976;9.584;2022-08-21T01:15:50;300.30;;;285.95;;
487;SDS011;16586;48.976;9.584;2022-08-21T01:18:19;293.92;;;279.88;;
487;SDS011;16586;48.976;9.584;2022-08-21T01:23:34;309.48;;;294.70;;
487;SDS011;16586;48.976;9.584;2022-08-21T01:26:03;293.02;;;279.02;;
487;SDS011;16586;48.976;9.584;2022-08-21T01:28:33;306.85;;;292.20;;
487;SDS011;16586;48.976;9.584;2022-08-21T01:31:06;330.60;;;314.83;;
487;SDS011;16586;48.976;9.584;2022-08-21T01:33:35;328.15;;;312.48;;
487;SDS011;16586;48.976;9.584;2022-08-21T01:36:03;335.70;;;319.67;;
487;SDS011;16586;48.976;9.584;2022-08-21T01:38:32;318.13;;;302.92;;
487;SDS011;16586;48.976;9.584;2022-08-21T01:40:59;332.83;;;316.92;;
487;SDS011;16586;48.976;9.584;2022-08-21T01:43:26;331.38;;;315.55;;
487;SDS011;16586;48.976;9.584;2022-08-21T01:45:53;326.67;;;311.08;;
487;SDS011;16586;48.976;9.584;2022-08-21T01:48:20;330.37;;;314.57;;
487;SDS011;16586;48.976;9.584;2022-08-21T01:50:47;347.17;;;330.58;;
487;SDS011;16586;48.976;9.584;2022-08-21T01:53:14;356.58;;;339.55;;
487;SDS011;16586;48.976;9.584;2022-08-21T01:55:43;352.65;;;335.80;;
487;SDS011;16586;48.976;9.584;2022-08-21T01:58:10;349.88;;;333.17;;
487;SDS011;16586;48.976;9.584;2022-08-21T02:00:40;361.02;;;343.80;;
487;SDS011;16586;48.976;9.584;2022-08-21T02:03:07;365.10;;;347.67;;
487;SDS011;16586;48.976;9.584;2022-08-21T02:05:35;348.33;;;331.70;;
487;SDS011;16586;48.976;9.584;2022-08-21T02:08:02;355.85;;;338.85;;
487;SDS011;16586;48.976;9.584;2022-08-21T02:10:31;390.35;;;371.73;;
487;SDS011;16586;48.976;9.584;2022-08-21T02:13:00;452.52;;;430.92;;
487;SDS011;16586;48.976;9.584;2022-08-21T02:15:27;644.33;;;613.63;;
487;SDS011;16586;48.976;9.584;2022-08-21T02:17:55;545.65;;;519.63;;
487;SDS011;16586;48.976;9.584;2022-08-21T02:20:25;462.92;;;440.83;;
487;SDS011;16586;48.976;9.584;2022-08-21T02:22:53;445.17;;;423.92;;
487;SDS011;16586;48.976;9.584;2022-08-21T02:25:21;470.02;;;447.63;;
487;SDS011;16586;48.976;9.584;2022-08-21T02:27:49;466.05;;;443.80;;
487;SDS011;16586;48.976;9.584;2022-08-21T02:30:19;489.00;;;465.65;;
487;SDS011;16586;48.976;9.584;2022-08-21T02:32:47;510.30;;;485.95;;
487;SDS011;16586;48.976;9.584;2022-08-21T02:35:14;450.45;;;428.95;;
487;SDS011;16586;48.976;9.584;2022-08-21T02:37:43;457.30;;;435.50;;
487;SDS011;16586;48.976;9.584;2022-08-21T02:40:13;454.38;;;432.67;;
487;SDS011;16586;48.976;9.584;2022-08-21T02:42:41;433.85;;;413.13;;
487;SDS011;16586;48.976;9.584;2022-08-21T02:45:09;445.92;;;424.65;;
487;SDS011;16586;48.976;9.584;2022-08-21T02:47:37;561.20;;;534.42;;
487;SDS011;16586;48.976;9.584;2022-08-21T02:50:05;577.10;;;549.55;;
487;SDS011;16586;48.976;9.584;2022-08-21T02:52:33;557.75;;;531.15;;
487;SDS011;16586;48.976;9.584;2022-08-21T02:55:01;587.45;;;559.42;;
487;SDS011;16586;48.976;9.584;2022-08-21T02:57:30;546.42;;;520.35;;
487;SDS011;16586;48.976;9.584;2022-08-21T02:59:57;480.90;;;457.93;;
487;SDS011;16586;48.976;9.584;2022-08-21T03:02:25;426.95;;;406.55;;
487;SDS011;16586;48.976;9.584;2022-08-21T03:04:53;417.63;;;397.67;;
487;SDS011;16586;48.976;9.584;2022-08-21T03:07:20;397.58;;;378.60;;
487;SDS011;16586;48.976;9.584;2022-08-21T03:09:47;385.30;;;366.90;;
487;SDS011;16586;48.976;9.584;2022-08-21T03:12:14;392.58;;;373.83;;
487;SDS011;16586;48.976;9.584;2022-08-21T03:14:41;409.13;;;389.60;;
487;SDS011;16586;48.976;9.584;2022-08-21T03:17:08;395.80;;;376.90;;
487;SDS011;16586;48.976;9.584;2022-08-21T03:19:35;379.63;;;361.50;;
487;SDS011;16586;48.976;9.584;2022-08-21T03:22:03;385.67;;;367.25;;
487;SDS011;16586;48.976;9.584;2022-08-21T03:24:31;362.95;;;345.60;;
487;SDS011;16586;48.976;9.584;2022-08-21T03:26:58;354.17;;;337.27;;
487;SDS011;16586;48.976;9.584;2022-08-21T03:29:25;390.00;;;371.40;;
487;SDS011;16586;48.976;9.584;2022-08-21T03:31:52;410.92;;;391.30;;
487;SDS011;16586;48.976;9.584;2022-08-21T03:34:19;375.55;;;357.60;;
487;SDS011;16586;48.976;9.584;2022-08-21T03:36:46;354.92;;;337.98;;
487;SDS011;16586;48.976;9.584;2022-08-21T03:39:15;327.13;;;311.50;;
487;SDS011;16586;48.976;9.584;2022-08-21T03:41:43;333.80;;;317.88;;
487;SDS011;16586;48.976;9.584;2022-08-21T03:44:10;307.07;;;292.40;;
487;SDS011;16586;48.976;9.584;2022-08-21T03:46:37;315.17;;;300.10;;
487;SDS011;16586;48.976;9.584;2022-08-21T03:49:05;308.70;;;293.98;;
487;SDS011;16586;48.976;9.584;2022-08-21T03:51:32;314.85;;;299.83;;
487;SDS011;16586;48.976;9.584;2022-08-21T03:54:00;322.52;;;307.13;;
487;SDS011;16586;48.976;9.584;2022-08-21T03:56:29;289.10;;;275.27;;
487;SDS011;16586;48.976;9.584;2022-08-21T03:58:56;322.23;;;306.83;;
487;SDS011;16586;48.976;9.584;2022-08-21T04:01:23;328.27;;;312.60;;
487;SDS011;16586;48.976;9.584;2022-08-21T04:03:51;311.27;;;296.38;;
487;SDS011;16586;48.976;9.584;2022-08-21T04:06:18;298.00;;;283.75;;
487;SDS011;16586;48.976;9.584;2022-08-21T04:08:45;299.83;;;285.50;;
487;SDS011;16586;48.976;9.584;2022-08-21T04:11:11;301.73;;;287.33;;
487;SDS011;16586;48.976;9.584;2022-08-21T04:13:41;285.83;;;272.17;;
487;SDS011;16586;48.976;9.584;2022-08-21T04:16:08;296.58;;;282.40;;
487;SDS011;16586;48.976;9.584;2022-08-21T04:18:35;84.88;;;80.78;;
487;SDS011;16586;48.976;9.584;2022-08-21T04:21:02;152.98;;;145.65;;
487;SDS011;16586;48.976;9.584;2022-08-21T04:23:29;292.75;;;278.75;;
487;SDS011;16586;48.976;9.584;2022-08-21T04:25:57;305.55;;;290.95;;
487;SDS011;16586;48.976;9.584;2022-08-21T04:28:24;325.38;;;309.83;;
487;SDS011;16586;48.976;9.584;2022-08-21T04:30:54;357.80;;;340.70;;
487;SDS011;16586;48.976;9.584;2022-08-21T04:33:22;316.58;;;301.45;;
487;SDS011;16586;48.976;9.584;2022-08-21T04:35:49;325.73;;;310.17;;
487;SDS011;16586;48.976;9.584;2022-08-21T04:38:16;303.23;;;288.73;;
487;SDS011;16586;48.976;9.584;2022-08-21T04:40:43;316.15;;;301.05;;
487;SDS011;16586;48.976;9.584;2022-08-21T04:43:11;315.23;;;300.17;;
487;SDS011;16586;48.976;9.584;2022-08-21T04:45:39;316.80;;;301.67;;
487;SDS011;16586;48.976;9.584;2022-08-21T04:48:09;285.87;;;272.20;;
487;SDS011;16586;48.976;9.584;2022-08-21T04:50:39;233.93;;;222.73;;
487;SDS011;16586;48.976;9.584;2022-08-21T04:53:10;279.95;;;266.55;;
487;SDS011;16586;48.976;9.584;2022-08-21T04:55:40;321.67;;;306.30;;
487;SDS011;16586;48.976;9.584;2022-08-21T04:58:08;340.02;;;323.80;;
487;SDS011;16586;48.976;9.584;2022-08-21T05:00:39;352.70;;;335.88;;
487;SDS011;16586;48.976;9.584;2022-08-21T05:03:07;361.58;;;344.30;;
487;SDS011;16586;48.976;9.584;2022-08-21T05:05:37;372.10;;;354.33;;
487;SDS011;16586;48.976;9.584;2022-08-21T05:08:05;389.75;;;371.13;;
487;SDS011;16586;48.976;9.584;2022-08-21T05:10:36;418.13;;;398.13;;
487;SDS011;16586;48.976;9.584;2022-08-21T05:13:02;413.27;;;393.55;;
487;SDS011;16586;48.976;9.584;2022-08-21T05:15:30;397.33;;;378.35;;
487;SDS011;16586;48.976;9.584;2022-08-21T05:17:57;400.33;;;381.23;;
487;SDS011;16586;48.976;9.584;2022-08-21T05:20:26;412.63;;;392.90;;
487;SDS011;16586;48.976;9.584;2022-08-21T05:22:52;446.67;;;425.35;;
487;SDS011;16586;48.976;9.584;2022-08-21T05:25:20;420.95;;;400.85;;
487;SDS011;16586;48.976;9.584;2022-08-21T05:27:47;429.95;;;409.45;;
487;SDS011;16586;48.976;9.584;2022-08-21T05:30:14;448.40;;;427.00;;
487;SDS011;16586;48.976;9.584;2022-08-21T05:32:40;426.05;;;405.70;;
487;SDS011;16586;48.976;9.584;2022-08-21T05:35:07;414.52;;;394.73;;
487;SDS011;16586;48.976;9.584;2022-08-21T05:37:37;408.23;;;388.73;;
487;SDS011;16586;48.976;9.584;2022-08-21T05:40:05;404.70;;;385.40;;
487;SDS011;16586;48.976;9.584;2022-08-21T05:42:33;417.73;;;397.83;;
487;SDS011;16586;48.976;9.584;2022-08-21T05:45:00;435.95;;;415.15;;
487;SDS011;16586;48.976;9.584;2022-08-21T05:47:27;422.98;;;402.80;;
487;SDS011;16586;48.976;9.584;2022-08-21T05:49:54;405.25;;;385.90;;
487;SDS011;16586;48.976;9.584;2022-08-21T05:52:21;404.02;;;384.75;;
487;SDS011;16586;48.976;9.584;2022-08-21T05:54:49;383.70;;;365.40;;
487;SDS011;16586;48.976;9.584;2022-08-21T05:57:19;370.15;;;352.48;;
487;SDS011;16586;48.976;9.584;2022-08-21T05:59:46;378.67;;;360.58;;
487;SDS011;16586;48.976;9.584;2022-08-21T06:02:13;422.45;;;402.27;;
487;SDS011;16586;48.976;9.584;2022-08-21T06:04:40;403.13;;;383.90;;
487;SDS011;16586;48.976;9.584;2022-08-21T06:07:08;401.83;;;382.63;;
487;SDS011;16586;48.976;9.584;2022-08-21T06:09:35;390.75;;;372.08;;
487;SDS011;16586;48.976;9.584;2022-08-21T06:12:05;400.48;;;381.35;;
487;SDS011;16586;48.976;9.584;2022-08-21T06:14:33;390.27;;;371.65;;
487;SDS011;16586;48.976;9.584;2022-08-21T06:17:01;399.23;;;380.15;;
487;SDS011;16586;48.976;9.584;2022-08-21T06:19:30;399.33;;;380.27;;
487;SDS011;16586;48.976;9.584;2022-08-21T06:21:58;412.40;;;392.73;;
487;SDS011;16586;48.976;9.584;2022-08-21T06:24:25;385.00;;;366.63;;
487;SDS011;16586;48.976;9.584;2022-08-21T06:26:53;388.38;;;369.85;;
487;SDS011;16586;48.976;9.584;2022-08-21T06:29:21;391.25;;;372.55;;
487;SDS011;16586;48.976;9.584;2022-08-21T06:31:49;385.17;;;366.77;;
487;SDS011;16586;48.976;9.584;2022-08-21T06:34:17;365.58;;;348.10;;
487;SDS011;16586;48.976;9.584;2022-08-21T06:36:44;367.45;;;349.90;;
487;SDS011;16586;48.976;9.584;2022-08-21T06:39:11;395.98;;;377.08;;
487;SDS011;16586;48.976;9.584;2022-08-21T06:41:38;370.80;;;353.10;;
487;SDS011;16586;48.976;9.584;2022-08-21T06:44:05;228.80;;;217.85;;
487;SDS011;16586;48.976;9.584;2022-08-21T06:46:33;388.58;;;370.02;;
487;SDS011;16586;48.976;9.584;2022-08-21T06:49:01;386.47;;;368.00;;
487;SDS011;16586;48.976;9.584;2022-08-21T06:51:27;371.63;;;353.88;;
487;SDS011;16586;48.976;9.584;2022-08-21T06:53:54;371.23;;;353.50;;
487;SDS011;16586;48.976;9.584;2022-08-21T06:56:21;372.63;;;354.83;;
487;SDS011;16586;48.976;9.584;2022-08-21T06:58:48;377.73;;;359.73;;
487;SDS011;16586;48.976;9.584;2022-08-21T07:01:15;336.27;;;320.23;;
487;SDS011;16586;48.976;9.584;2022-08-21T07:03:44;408.37;;;388.87;;
487;SDS011;16586;48.976;9.584;2022-08-21T07:06:11;376.25;;;358.27;;
487;SDS011;16586;48.976;9.584;2022-08-21T07:08:38;372.48;;;354.67;;
487;SDS011;16586;48.976;9.584;2022-08-21T07:11:07;389.45;;;370.85;;
487;SDS011;16586;48.976;9.584;2022-08-21T07:13:47;404.05;;;384.75;;
487;SDS011;16586;48.976;9.584;2022-08-21T07:16:16;394.98;;;376.13;;
487;SDS011;16586;48.976;9.584;2022-08-21T07:18:44;401.23;;;382.07;;
487;SDS011;16586;48.976;9.584;2022-08-21T07:21:11;377.67;;;359.63;;
487;SDS011;16586;48.976;9.584;2022-08-21T07:23:39;415.45;;;395.65;;
487;SDS011;16586;48.976;9.584;2022-08-21T07:26:08;392.73;;;373.98;;
487;SDS011;16586;48.976;9.584;2022-08-21T07:28:35;390.73;;;372.08;;
487;SDS011;16586;48.976;9.584;2022-08-21T07:31:02;409.43;;;389.90;;
487;SDS011;16586;48.976;9.584;2022-08-21T07:33:32;369.88;;;352.23;;
487;SDS011;16586;48.976;9.584;2022-08-21T07:36:01;386.63;;;368.17;;
487;SDS011;16586;48.976;9.584;2022-08-21T07:38:29;381.05;;;362.85;;
487;SDS011;16586;48.976;9.584;2022-08-21T07:40:56;386.05;;;367.63;;
487;SDS011;16586;48.976;9.584;2022-08-21T07:43:25;391.13;;;372.42;;
487;SDS011;16586;48.976;9.584;2022-08-21T07:45:52;391.42;;;372.73;;
487;SDS011;16586;48.976;9.584;2022-08-21T07:48:19;403.30;;;384.05;;
487;SDS011;16586;48.976;9.584;2022-08-21T07:50:46;416.25;;;396.35;;
487;SDS011;16586;48.976;9.584;2022-08-21T07:53:15;387.00;;;368.50;;
487;SDS011;16586;48.976;9.584;2022-08-21T07:55:42;396.30;;;377.40;;
487;SDS011;16586;48.976;9.584;2022-08-21T07:58:09;372.58;;;354.77;;
487;SDS011;16586;48.976;9.584;2022-08-21T08:00:36;388.25;;;369.70;;
487;SDS011;16586;48.976;9.584;2022-08-21T08:03:03;386.88;;;368.38;;
487;SDS011;16586;48.976;9.584;2022-08-21T08:05:30;390.80;;;372.13;;
487;SDS011;16586;48.976;9.584;2022-08-21T08:07:58;402.73;;;383.50;;
487;SDS011;16586;48.976;9.584;2022-08-21T08:10:26;414.80;;;394.98;;
487;SDS011;16586;48.976;9.584;2022-08-21T08:12:53;437.90;;;417.00;;
487;SDS011;16586;48.976;9.584;2022-08-21T08:15:21;418.27;;;398.30;;
487;SDS011;16586;48.976;9.584;2022-08-21T08:17:50;427.95;;;407.55;;
487;SDS011;16586;48.976;9.584;2022-08-21T08:20:18;423.55;;;403.35;;
487;SDS011;16586;48.976;9.584;2022-08-21T08:22:46;433.40;;;412.70;;
487;SDS011;16586;48.976;9.584;2022-08-21T08:25:14;461.50;;;439.48;;
487;SDS011;16586;48.976;9.584;2022-08-21T08:27:44;448.30;;;426.90;;
487;SDS011;16586;48.976;9.584;2022-08-21T08:30:11;447.60;;;426.25;;
487;SDS011;16586;48.976;9.584;2022-08-21T08:32:41;443.90;;;422.70;;
487;SDS011;16586;48.976;9.584;2022-08-21T08:35:08;463.20;;;441.10;;
487;SDS011;16586;48.976;9.584;2022-08-21T08:37:36;460.45;;;438.48;;
487;SDS011;16586;48.976;9.584;2022-08-21T08:40:05;555.88;;;529.35;;
487;SDS011;16586;48.976;9.584;2022-08-21T08:42:34;575.70;;;548.25;;
487;SDS011;16586;48.976;9.584;2022-08-21T08:45:04;569.30;;;542.15;;
487;SDS011;16586;48.976;9.584;2022-08-21T08:47:34;571.30;;;544.03;;
487;SDS011;16586;48.976;9.584;2022-08-21T08:50:05;582.60;;;554.80;;
487;SDS011;16586;48.976;9.584;2022-08-21T08:52:36;607.13;;;578.17;;
487;SDS011;16586;48.976;9.584;2022-08-21T08:55:09;634.87;;;604.60;;
487;SDS011;16586;48.976;9.584;2022-08-21T08:57:41;641.72;;;611.13;;
487;SDS011;16586;48.976;9.584;2022-08-21T09:00:13;645.45;;;614.65;;
487;SDS011;16586;48.976;9.584;2022-08-21T09:02:43;667.03;;;635.22;;
487;SDS011;16586;48.976;9.584;2022-08-21T09:05:15;668.22;;;636.35;;
487;SDS011;16586;48.976;9.584;2022-08-21T09:07:54;668.05;;;636.20;;
487;SDS011;16586;48.976;9.584;2022-08-21T09:10:37;733.88;;;698.88;;
487;SDS011;16586;48.976;9.584;2022-08-21T09:13:16;710.17;;;676.30;;
487;SDS011;16586;48.976;9.584;2022-08-21T09:15:52;649.28;;;618.33;;
487;SDS011;16586;48.976;9.584;2022-08-21T09:18:28;689.60;;;656.70;;
487;SDS011;16586;48.976;9.584;2022-08-21T09:21:10;542.58;;;516.70;;
487;SDS011;16586;48.976;9.584;2022-08-21T09:23:47;601.80;;;573.10;;
487;SDS011;16586;48.976;9.584;2022-08-21T09:26:25;612.35;;;583.15;;
487;SDS011;16586;48.976;9.584;2022-08-21T09:28:54;623.85;;;594.08;;
487;SDS011;16586;48.976;9.584;2022-08-21T09:31:27;723.38;;;688.88;;
487;SDS011;16586;48.976;9.584;2022-08-21T09:33:59;719.80;;;685.47;;
487;SDS011;16586;48.976;9.584;2022-08-21T09:36:31;762.63;;;726.27;;
487;SDS011;16586;48.976;9.584;2022-08-21T09:39:03;772.72;;;735.90;;
487;SDS011;16586;48.976;9.584;2022-08-21T09:41:32;777.20;;;740.15;;
487;SDS011;16586;48.976;9.584;2022-08-21T09:44:01;808.05;;;769.55;;
487;SDS011;16586;48.976;9.584;2022-08-21T09:46:31;803.90;;;765.60;;
487;SDS011;16586;48.976;9.584;2022-08-21T09:48:59;824.22;;;784.92;;
487;SDS011;16586;48.976;9.584;2022-08-21T09:51:28;829.95;;;790.38;;
487;SDS011;16586;48.976;9.584;2022-08-21T09:53:58;839.75;;;799.72;;
487;SDS011;16586;48.976;9.584;2022-08-21T09:56:51;864.85;;;823.60;;
487;SDS011;16586;48.976;9.584;2022-08-21T09:59:38;875.05;;;833.33;;
487;SDS011;16586;48.976;9.584;2022-08-21T10:02:19;879.97;;;838.00;;
487;SDS011;16586;48.976;9.584;2022-08-21T10:04:50;896.15;;;853.45;;
487;SDS011;16586;48.976;9.584;2022-08-21T10:07:19;896.30;;;853.60;;
487;SDS011;16586;48.976;9.584;2022-08-21T10:09:57;896.28;;;853.55;;
487;SDS011;16586;48.976;9.584;2022-08-21T10:12:27;920.72;;;876.83;;
487;SDS011;16586;48.976;9.584;2022-08-21T10:15:04;925.17;;;881.08;;
487;SDS011;16586;48.976;9.584;2022-08-21T10:17:43;891.38;;;848.88;;
487;SDS011;16586;48.976;9.584;2022-08-21T10:20:19;898.13;;;855.30;;
487;SDS011;16586;48.976;9.584;2022-08-21T10:22:52;925.77;;;881.63;;
487;SDS011;16586;48.976;9.584;2022-08-21T10:25:30;932.22;;;887.78;;
487;SDS011;16586;48.976;9.584;2022-08-21T10:28:03;950.15;;;904.85;;
487;SDS011;16586;48.976;9.584;2022-08-21T10:30:41;964.75;;;918.75;;
487;SDS011;16586;48.976;9.584;2022-08-21T10:33:19;946.03;;;900.92;;
487;SDS011;16586;48.976;9.584;2022-08-21T10:36:02;963.65;;;917.75;;
487;SDS011;16586;48.976;9.584;2022-08-21T10:38:41;969.83;;;923.60;;
487;SDS011;16586;48.976;9.584;2022-08-21T10:41:21;1012.25;;;964.00;;
487;SDS011;16586;48.976;9.584;2022-08-21T10:43:59;994.38;;;946.97;;
487;SDS011;16586;48.976;9.584;2022-08-21T10:46:37;1019.50;;;970.90;;
487;SDS011;16586;48.976;9.584;2022-08-21T10:49:16;1014.30;;;965.95;;
487;SDS011;16586;48.976;9.584;2022-08-21T10:51:50;1021.30;;;972.63;;
487;SDS011;16586;48.976;9.584;2022-08-21T10:54:29;1017.28;;;968.80;;
487;SDS011;16586;48.976;9.584;2022-08-21T10:57:05;988.90;;;941.80;;
487;SDS011;16586;48.976;9.584;2022-08-21T10:59:38;1064.03;;;999.90;;
487;SDS011;16586;48.976;9.584;2022-08-21T11:02:11;1060.43;;;999.90;;
487;SDS011;16586;48.976;9.584;2022-08-21T11:04:55;1061.63;;;999.90;;
487;SDS011;16586;48.976;9.584;2022-08-21T11:07:36;1031.43;;;982.25;;
487;SDS011;16586;48.976;9.584;2022-08-21T11:10:10;1035.28;;;985.92;;
487;SDS011;16586;48.976;9.584;2022-08-21T11:12:43;1055.68;;;999.90;;
487;SDS011;16586;48.976;9.584;2022-08-21T11:15:18;1044.50;;;994.70;;
487;SDS011;16586;48.976;9.584;2022-08-21T11:17:52;1054.97;;;999.90;;
487;SDS011;16586;48.976;9.584;2022-08-21T11:20:28;1060.63;;;999.90;;
487;SDS011;16586;48.976;9.584;2022-08-21T11:23:01;1025.28;;;976.40;;
487;SDS011;16586;48.976;9.584;2022-08-21T11:25:34;1079.80;;;999.90;;
487;SDS011;16586;48.976;9.584;2022-08-21T11:28:05;1109.38;;;999.90;;
487;SDS011;16586;48.976;9.584;2022-08-21T11:30:40;1145.43;;;999.90;;
487;SDS011;16586;48.976;9.584;2022-08-21T11:33:22;1142.57;;;999.90;;
487;SDS011;16586;48.976;9.584;2022-08-21T11:36:06;1167.90;;;999.90;;
487;SDS011;16586;48.976;9.584;2022-08-21T11:38:40;1177.07;;;999.90;;
487;SDS011;16586;48.976;9.584;2022-08-21T11:41:13;1199.07;;;999.90;;
487;SDS011;16586;48.976;9.584;2022-08-21T11:43:51;1200.05;;;999.90;;
487;SDS011;16586;48.976;9.584;2022-08-21T11:46:28;1163.32;;;999.90;;
487;SDS011;16586;48.976;9.584;2022-08-21T11:49:03;1137.43;;;999.90;;
487;SDS011;16586;48.976;9.584;2022-08-21T11:51:46;1126.45;;;999.90;;
487;SDS011;16586;48.976;9.584;2022-08-21T11:54:20;1153.97;;;999.90;;
487;SDS011;16586;48.976;9.584;2022-08-21T11:56:53;1107.88;;;999.90;;
487;SDS011;16586;48.976;9.584;2022-08-21T11:59:28;1097.45;;;999.90;;
487;SDS011;16586;48.976;9.584;2022-08-21T12:02:02;1139.03;;;999.90;;
487;SDS011;16586;48.976;9.584;2022-08-21T12:04:34;1121.10;;;999.90;;
487;SDS011;16586;48.976;9.584;2022-08-21T12:07:11;1136.78;;;999.90;;
487;SDS011;16586;48.976;9.584;2022-08-21T12:09:51;1145.80;;;999.90;;
487;SDS011;16586;48.976;9.584;2022-08-21T12:12:23;1157.80;;;999.90;;
487;SDS011;16586;48.976;9.584;2022-08-21T12:15:04;1162.03;;;999.90;;
487;SDS011;16586;48.976;9.584;2022-08-21T12:17:40;1160.40;;;999.90;;
487;SDS011;16586;48.976;9.584;2022-08-21T12:20:22;1168.03;;;999.90;;
487;SDS011;16586;48.976;9.584;2022-08-21T12:26:17;1152.83;;;999.90;;
487;SDS011;16586;48.976;9.584;2022-08-21T12:28:50;1137.65;;;999.90;;
487;SDS011;16586;48.976;9.584;2022-08-21T12:31:18;1137.35;;;999.90;;
487;SDS011;16586;48.976;9.584;2022-08-21T12:33:50;1118.78;;;999.90;;
487;SDS011;16586;48.976;9.584;2022-08-21T12:36:23;1106.85;;;999.90;;
487;SDS011;16586;48.976;9.584;2022-08-21T12:38:57;1102.30;;;999.90;;
487;SDS011;16586;48.976;9.584;2022-08-21T12:41:28;1109.43;;;999.90;;
487;SDS011;16586;48.976;9.584;2022-08-21T12:44:00;1104.60;;;999.90;;
487;SDS011;16586;48.976;9.584;2022-08-21T12:46:36;1084.50;;;999.90;;
487;SDS011;16586;48.976;9.584;2022-08-21T12:49:08;1072.50;;;999.90;;
487;SDS011;16586;48.976;9.584;2022-08-21T12:51:46;1066.93;;;999.90;;
487;SDS011;16586;48.976;9.584;2022-08-21T12:54:23;1068.32;;;999.90;;
487;SDS011;16586;48.976;9.584;2022-08-21T12:56:56;1048.45;;;998.45;;
487;SDS011;16586;48.976;9.584;2022-08-21T12:59:23;986.67;;;939.65;;
487;SDS011;16586;48.976;9.584;2022-08-21T13:01:50;1054.35;;;999.90;;
487;SDS011;16586;48.976;9.584;2022-08-21T13:04:21;1031.63;;;982.42;;
487;SDS011;16586;48.976;9.584;2022-08-21T13:06:54;1038.90;;;989.38;;
487;SDS011;16586;48.976;9.584;2022-08-21T13:09:25;1012.97;;;964.67;;
487;SDS011;16586;48.976;9.584;2022-08-21T13:11:54;1040.80;;;991.20;;
487;SDS011;16586;48.976;9.584;2022-08-21T13:14:23;1015.47;;;967.08;;
487;SDS011;16586;48.976;9.584;2022-08-21T13:16:54;1025.75;;;976.85;;
487;SDS011;16586;48.976;9.584;2022-08-21T13:19:22;1039.70;;;990.10;;
487;SDS011;16586;48.976;9.584;2022-08-21T13:21:50;1060.88;;;999.90;;
487;SDS011;16586;48.976;9.584;2022-08-21T13:24:20;1089.78;;;999.90;;
487;SDS011;16586;48.976;9.584;2022-08-21T13:26:50;1117.00;;;999.90;;
487;SDS011;16586;48.976;9.584;2022-08-21T13:29:18;1120.65;;;999.90;;
487;SDS011;16586;48.976;9.584;2022-08-21T13:31:48;1150.13;;;999.90;;
487;SDS011;16586;48.976;9.584;2022-08-21T13:34:17;1153.97;;;999.90;;
487;SDS011;16586;48.976;9.584;2022-08-21T13:36:45;1154.45;;;999.90;;
487;SDS011;16586;48.976;9.584;2022-08-21T13:39:14;1156.35;;;999.90;;
487;SDS011;16586;48.976;9.584;2022-08-21T13:41:46;1153.65;;;999.90;;
487;SDS011;16586;48.976;9.584;2022-08-21T13:44:19;1125.47;;;999.90;;
487;SDS011;16586;48.976;9.584;2022-08-21T13:46:51;1125.63;;;999.90;;
487;SDS011;16586;48.976;9.584;2022-08-21T13:49:20;1123.07;;;999.90;;
487;SDS011;16586;48.976;9.584;2022-08-21T13:51:52;1114.70;;;999.90;;
487;SDS011;16586;48.976;9.584;2022-08-21T13:54:21;1125.82;;;999.90;;
487;SDS011;16586;48.976;9.584;2022-08-21T13:56:52;1125.25;;;999.90;;
487;SDS011;16586;48.976;9.584;2022-08-21T13:59:25;1122.50;;;999.90;;
487;SDS011;16586;48.976;9.584;2022-08-21T14:01:54;1043.87;;;994.10;;
487;SDS011;16586;48.976;9.584;2022-08-21T14:04:26;988.60;;;941.47;;
487;SDS011;16586;48.976;9.584;2022-08-21T14:06:58;930.13;;;885.80;;
487;SDS011;16586;48.976;9.584;2022-08-21T14:09:28;960.93;;;915.13;;
487;SDS011;16586;48.976;9.584;2022-08-21T14:11:56;974.83;;;928.35;;
487;SDS011;16586;48.976;9.584;2022-08-21T14:14:28;919.17;;;875.37;;
487;SDS011;16586;48.976;9.584;2022-08-21T14:16:58;913.03;;;869.47;;
487;SDS011;16586;48.976;9.584;2022-08-21T14:19:27;959.55;;;913.83;;
487;SDS011;16586;48.976;9.584;2022-08-21T14:24:47;965.33;;;919.33;;
487;SDS011;16586;48.976;9.584;2022-08-21T14:27:16;976.10;;;929.60;;
487;SDS011;16586;48.976;9.584;2022-08-21T14:29:45;1005.83;;;957.90;;
487;SDS011;16586;48.976;9.584;2022-08-21T14:32:13;1014.22;;;965.88;;
487;SDS011;16586;48.976;9.584;2022-08-21T14:34:42;1010.70;;;962.50;;
487;SDS011;16586;48.976;9.584;2022-08-21T14:37:09;1014.50;;;966.10;;
487;SDS011;16586;48.976;9.584;2022-08-21T14:39:36;1015.33;;;966.92;;
487;SDS011;16586;48.976;9.584;2022-08-21T14:42:03;1021.95;;;973.25;;
487;SDS011;16586;48.976;9.584;2022-08-21T14:44:30;1083.75;;;999.90;;